sensor_id;sensor_type;location;lat;lon;timestamp;P1;durP1;ratioP1;P2;durP2;ratioP2
19026;SDS011;9646;52.034;5.554;2022-09-09T00:00:18;1.17;;;0.50;;
19026;SDS011;9646;52.034;5.554;2022-09-09T00:02:48;1.83;;;0.82;;
19026;SDS011;9646;52.034;5.554;2022-09-09T00:05:18;0.80;;;0.60;;
19026;SDS011;9646;52.034;5.554;2022-09-09T00:07:48;1.08;;;0.80;;
19026;SDS011;9646;52.034;5.554;2022-09-09T00:10:17;1.63;;;0.82;;
19026;SDS011;9646;52.034;5.554;2022-09-09T00:12:49;1.38;;;0.90;;
19026;SDS011;9646;52.034;5.554;2022-09-09T00:15:22;2.17;;;0.82;;
19026;SDS011;9646;52.034;5.554;2022-09-09T00:17:52;1.63;;;0.90;;
19026;SDS011;9646;52.034;5.554;2022-09-09T00:20:24;3.30;;;0.90;;
19026;SDS011;9646;52.034;5.554;2022-09-09T00:22:53;1.38;;;0.80;;
19026;SDS011;9646;52.034;5.554;2022-09-09T00:25:23;2.45;;;1.02;;
19026;SDS011;9646;52.034;5.554;2022-09-09T00:27:53;2.40;;;1.10;;
19026;SDS011;9646;52.034;5.554;2022-09-09T00:30:23;1.75;;;0.95;;
19026;SDS011;9646;52.034;5.554;2022-09-09T00:32:53;1.55;;;0.80;;
19026;SDS011;9646;52.034;5.554;2022-09-09T00:35:24;2.17;;;1.42;;
19026;SDS011;9646;52.034;5.554;2022-09-09T00:37:52;2.15;;;1.17;;
19026;SDS011;9646;52.034;5.554;2022-09-09T00:40:24;2.63;;;1.00;;
19026;SDS011;9646;52.034;5.554;2022-09-09T00:42:54;2.25;;;1.20;;
19026;SDS011;9646;52.034;5.554;2022-09-09T00:45:35;2.00;;;1.08;;
19026;SDS011;9646;52.034;5.554;2022-09-09T00:48:03;1.23;;;0.98;;
19026;SDS011;9646;52.034;5.554;2022-09-09T00:50:38;1.80;;;1.00;;
19026;SDS011;9646;52.034;5.554;2022-09-09T00:53:20;5.00;;;1.48;;
19026;SDS011;9646;52.034;5.554;2022-09-09T00:55:53;1.95;;;1.02;;
19026;SDS011;9646;52.034;5.554;2022-09-09T00:58:21;2.47;;;1.23;;
19026;SDS011;9646;52.034;5.554;2022-09-09T01:00:51;1.25;;;0.75;;
19026;SDS011;9646;52.034;5.554;2022-09-09T01:03:22;2.35;;;0.95;;
19026;SDS011;9646;52.034;5.554;2022-09-09T01:05:54;1.55;;;1.00;;
19026;SDS011;9646;52.034;5.554;2022-09-09T01:08:32;2.58;;;1.17;;
19026;SDS011;9646;52.034;5.554;2022-09-09T01:11:01;1.60;;;1.08;;
19026;SDS011;9646;52.034;5.554;2022-09-09T01:13:29;2.10;;;1.15;;
19026;SDS011;9646;52.034;5.554;2022-09-09T01:15:58;2.35;;;1.08;;
19026;SDS011;9646;52.034;5.554;2022-09-09T01:18:27;3.20;;;0.90;;
19026;SDS011;9646;52.034;5.554;2022-09-09T01:20:59;3.83;;;1.23;;
19026;SDS011;9646;52.034;5.554;2022-09-09T01:23:34;3.03;;;0.73;;
19026;SDS011;9646;52.034;5.554;2022-09-09T01:26:14;2.58;;;1.08;;
19026;SDS011;9646;52.034;5.554;2022-09-09T01:28:43;3.17;;;0.93;;
19026;SDS011;9646;52.034;5.554;2022-09-09T01:31:11;2.53;;;0.93;;
19026;SDS011;9646;52.034;5.554;2022-09-09T01:33:41;2.13;;;0.70;;
19026;SDS011;9646;52.034;5.554;2022-09-09T01:36:09;1.52;;;0.90;;
19026;SDS011;9646;52.034;5.554;2022-09-09T01:38:38;0.75;;;0.60;;
19026;SDS011;9646;52.034;5.554;2022-09-09T01:41:06;0.90;;;0.73;;
19026;SDS011;9646;52.034;5.554;2022-09-09T01:43:34;4.35;;;1.10;;
19026;SDS011;9646;52.034;5.554;2022-09-09T01:46:02;3.13;;;1.15;;
19026;SDS011;9646;52.034;5.554;2022-09-09T01:48:29;1.33;;;0.80;;
19026;SDS011;9646;52.034;5.554;2022-09-09T01:50:56;1.23;;;0.60;;
19026;SDS011;9646;52.034;5.554;2022-09-09T01:53:23;1.27;;;0.93;;
19026;SDS011;9646;52.034;5.554;2022-09-09T01:55:53;3.00;;;1.30;;
19026;SDS011;9646;52.034;5.554;2022-09-09T01:58:25;1.48;;;1.10;;
19026;SDS011;9646;52.034;5.554;2022-09-09T02:00:56;3.15;;;1.45;;
19026;SDS011;9646;52.034;5.554;2022-09-09T02:03:26;1.60;;;1.23;;
19026;SDS011;9646;52.034;5.554;2022-09-09T02:05:56;2.78;;;1.27;;
19026;SDS011;9646;52.034;5.554;2022-09-09T02:08:26;1.27;;;0.93;;
19026;SDS011;9646;52.034;5.554;2022-09-09T02:10:56;3.78;;;1.35;;
19026;SDS011;9646;52.034;5.554;2022-09-09T02:13:25;1.05;;;0.93;;
19026;SDS011;9646;52.034;5.554;2022-09-09T02:15:54;1.40;;;0.90;;
19026;SDS011;9646;52.034;5.554;2022-09-09T02:18:24;1.58;;;0.90;;
19026;SDS011;9646;52.034;5.554;2022-09-09T02:20:53;1.42;;;1.05;;
19026;SDS011;9646;52.034;5.554;2022-09-09T02:23:21;1.15;;;0.80;;
19026;SDS011;9646;52.034;5.554;2022-09-09T02:25:48;2.80;;;0.80;;
19026;SDS011;9646;52.034;5.554;2022-09-09T02:28:16;1.77;;;1.00;;
19026;SDS011;9646;52.034;5.554;2022-09-09T02:30:45;1.38;;;1.00;;
19026;SDS011;9646;52.034;5.554;2022-09-09T02:33:13;3.63;;;0.80;;
19026;SDS011;9646;52.034;5.554;2022-09-09T02:35:42;1.88;;;1.10;;
19026;SDS011;9646;52.034;5.554;2022-09-09T02:38:10;1.77;;;1.08;;
19026;SDS011;9646;52.034;5.554;2022-09-09T02:40:39;1.05;;;0.80;;
19026;SDS011;9646;52.034;5.554;2022-09-09T02:43:06;1.95;;;1.10;;
19026;SDS011;9646;52.034;5.554;2022-09-09T02:45:34;2.50;;;1.00;;
19026;SDS011;9646;52.034;5.554;2022-09-09T02:48:04;2.13;;;1.42;;
19026;SDS011;9646;52.034;5.554;2022-09-09T02:50:33;3.97;;;1.10;;
19026;SDS011;9646;52.034;5.554;2022-09-09T02:53:05;2.03;;;1.10;;
19026;SDS011;9646;52.034;5.554;2022-09-09T02:55:37;1.60;;;1.10;;
19026;SDS011;9646;52.034;5.554;2022-09-09T02:58:05;1.92;;;1.05;;
19026;SDS011;9646;52.034;5.554;2022-09-09T03:00:35;2.90;;;1.05;;
19026;SDS011;9646;52.034;5.554;2022-09-09T03:03:02;2.30;;;1.13;;
19026;SDS011;9646;52.034;5.554;2022-09-09T03:05:29;3.72;;;1.20;;
19026;SDS011;9646;52.034;5.554;2022-09-09T03:07:56;1.70;;;1.00;;
19026;SDS011;9646;52.034;5.554;2022-09-09T03:10:25;3.05;;;1.10;;
19026;SDS011;9646;52.034;5.554;2022-09-09T03:12:52;1.88;;;1.20;;
19026;SDS011;9646;52.034;5.554;2022-09-09T03:15:20;2.60;;;0.85;;
19026;SDS011;9646;52.034;5.554;2022-09-09T03:17:47;2.08;;;1.27;;
19026;SDS011;9646;52.034;5.554;2022-09-09T03:20:14;2.33;;;0.90;;
19026;SDS011;9646;52.034;5.554;2022-09-09T03:22:41;1.73;;;0.90;;
19026;SDS011;9646;52.034;5.554;2022-09-09T03:25:10;2.45;;;1.25;;
19026;SDS011;9646;52.034;5.554;2022-09-09T03:27:38;1.85;;;1.10;;
19026;SDS011;9646;52.034;5.554;2022-09-09T03:30:05;1.02;;;0.80;;
19026;SDS011;9646;52.034;5.554;2022-09-09T03:32:33;2.70;;;0.85;;
19026;SDS011;9646;52.034;5.554;2022-09-09T03:35:00;2.30;;;0.90;;
19026;SDS011;9646;52.034;5.554;2022-09-09T03:37:27;1.35;;;0.70;;
19026;SDS011;9646;52.034;5.554;2022-09-09T03:39:54;1.83;;;0.73;;
19026;SDS011;9646;52.034;5.554;2022-09-09T03:42:21;1.65;;;1.05;;
19026;SDS011;9646;52.034;5.554;2022-09-09T03:44:49;2.53;;;1.40;;
19026;SDS011;9646;52.034;5.554;2022-09-09T03:47:17;3.47;;;1.15;;
19026;SDS011;9646;52.034;5.554;2022-09-09T03:49:44;2.42;;;1.20;;
19026;SDS011;9646;52.034;5.554;2022-09-09T03:52:11;1.27;;;0.90;;
19026;SDS011;9646;52.034;5.554;2022-09-09T03:54:38;1.52;;;0.85;;
19026;SDS011;9646;52.034;5.554;2022-09-09T03:57:07;2.13;;;0.95;;
19026;SDS011;9646;52.034;5.554;2022-09-09T03:59:34;2.78;;;1.00;;
19026;SDS011;9646;52.034;5.554;2022-09-09T04:02:03;1.52;;;1.10;;
19026;SDS011;9646;52.034;5.554;2022-09-09T04:04:30;1.17;;;0.90;;
19026;SDS011;9646;52.034;5.554;2022-09-09T04:06:57;3.63;;;1.00;;
19026;SDS011;9646;52.034;5.554;2022-09-09T04:09:24;1.73;;;1.00;;
19026;SDS011;9646;52.034;5.554;2022-09-09T04:11:51;2.38;;;0.80;;
19026;SDS011;9646;52.034;5.554;2022-09-09T04:14:19;5.20;;;1.15;;
19026;SDS011;9646;52.034;5.554;2022-09-09T04:16:47;2.10;;;1.00;;
19026;SDS011;9646;52.034;5.554;2022-09-09T04:19:15;1.33;;;0.88;;
19026;SDS011;9646;52.034;5.554;2022-09-09T04:21:42;1.27;;;0.70;;
19026;SDS011;9646;52.034;5.554;2022-09-09T04:24:09;2.00;;;0.75;;
19026;SDS011;9646;52.034;5.554;2022-09-09T04:26:36;3.08;;;1.20;;
19026;SDS011;9646;52.034;5.554;2022-09-09T04:29:04;2.15;;;0.90;;
19026;SDS011;9646;52.034;5.554;2022-09-09T04:31:33;2.88;;;1.15;;
19026;SDS011;9646;52.034;5.554;2022-09-09T04:34:00;2.30;;;1.23;;
19026;SDS011;9646;52.034;5.554;2022-09-09T04:36:31;2.10;;;1.25;;
19026;SDS011;9646;52.034;5.554;2022-09-09T04:38:58;1.90;;;1.10;;
19026;SDS011;9646;52.034;5.554;2022-09-09T04:41:26;2.03;;;1.05;;
19026;SDS011;9646;52.034;5.554;2022-09-09T04:43:53;3.47;;;1.40;;
19026;SDS011;9646;52.034;5.554;2022-09-09T04:46:21;2.47;;;1.00;;
19026;SDS011;9646;52.034;5.554;2022-09-09T04:48:48;2.85;;;1.10;;
19026;SDS011;9646;52.034;5.554;2022-09-09T04:51:16;2.83;;;1.00;;
19026;SDS011;9646;52.034;5.554;2022-09-09T04:53:44;1.77;;;0.77;;
19026;SDS011;9646;52.034;5.554;2022-09-09T04:56:13;4.05;;;1.00;;
19026;SDS011;9646;52.034;5.554;2022-09-09T04:58:40;4.88;;;1.25;;
19026;SDS011;9646;52.034;5.554;2022-09-09T05:01:09;1.92;;;1.13;;
19026;SDS011;9646;52.034;5.554;2022-09-09T05:03:36;2.70;;;1.20;;
19026;SDS011;9646;52.034;5.554;2022-09-09T05:06:04;2.80;;;1.13;;
19026;SDS011;9646;52.034;5.554;2022-09-09T05:08:33;2.83;;;0.80;;
19026;SDS011;9646;52.034;5.554;2022-09-09T05:11:02;2.83;;;1.20;;
19026;SDS011;9646;52.034;5.554;2022-09-09T05:13:29;2.33;;;0.88;;
19026;SDS011;9646;52.034;5.554;2022-09-09T05:15:57;3.38;;;0.90;;
19026;SDS011;9646;52.034;5.554;2022-09-09T05:18:24;2.42;;;0.85;;
19026;SDS011;9646;52.034;5.554;2022-09-09T05:20:51;1.88;;;0.90;;
19026;SDS011;9646;52.034;5.554;2022-09-09T05:23:18;2.75;;;1.35;;
19026;SDS011;9646;52.034;5.554;2022-09-09T05:25:54;1.52;;;0.82;;
19026;SDS011;9646;52.034;5.554;2022-09-09T05:28:23;2.88;;;1.33;;
19026;SDS011;9646;52.034;5.554;2022-09-09T05:31:00;2.22;;;1.33;;
19026;SDS011;9646;52.034;5.554;2022-09-09T05:33:29;3.20;;;1.75;;
19026;SDS011;9646;52.034;5.554;2022-09-09T05:35:57;3.65;;;1.35;;
19026;SDS011;9646;52.034;5.554;2022-09-09T05:38:24;1.77;;;1.13;;
19026;SDS011;9646;52.034;5.554;2022-09-09T05:40:51;3.60;;;1.20;;
19026;SDS011;9646;52.034;5.554;2022-09-09T05:43:18;2.60;;;0.82;;
19026;SDS011;9646;52.034;5.554;2022-09-09T05:45:47;5.55;;;1.33;;
19026;SDS011;9646;52.034;5.554;2022-09-09T05:48:14;5.80;;;1.40;;
19026;SDS011;9646;52.034;5.554;2022-09-09T05:50:41;2.80;;;0.88;;
19026;SDS011;9646;52.034;5.554;2022-09-09T05:53:10;3.55;;;1.00;;
19026;SDS011;9646;52.034;5.554;2022-09-09T05:55:37;4.88;;;1.52;;
19026;SDS011;9646;52.034;5.554;2022-09-09T05:58:04;2.33;;;1.00;;
19026;SDS011;9646;52.034;5.554;2022-09-09T06:00:31;2.90;;;0.90;;
19026;SDS011;9646;52.034;5.554;2022-09-09T06:02:59;3.25;;;1.05;;
19026;SDS011;9646;52.034;5.554;2022-09-09T06:05:26;2.83;;;1.08;;
19026;SDS011;9646;52.034;5.554;2022-09-09T06:07:53;7.28;;;1.10;;
19026;SDS011;9646;52.034;5.554;2022-09-09T06:10:21;2.63;;;1.20;;
19026;SDS011;9646;52.034;5.554;2022-09-09T06:12:48;4.35;;;1.48;;
19026;SDS011;9646;52.034;5.554;2022-09-09T06:15:15;6.68;;;1.42;;
19026;SDS011;9646;52.034;5.554;2022-09-09T06:17:42;2.60;;;1.20;;
19026;SDS011;9646;52.034;5.554;2022-09-09T06:20:11;3.95;;;1.30;;
19026;SDS011;9646;52.034;5.554;2022-09-09T06:22:39;3.75;;;1.20;;
19026;SDS011;9646;52.034;5.554;2022-09-09T06:25:07;3.72;;;1.08;;
19026;SDS011;9646;52.034;5.554;2022-09-09T06:27:34;6.28;;;1.65;;
19026;SDS011;9646;52.034;5.554;2022-09-09T06:30:02;4.20;;;1.60;;
19026;SDS011;9646;52.034;5.554;2022-09-09T06:32:29;4.15;;;1.20;;
19026;SDS011;9646;52.034;5.554;2022-09-09T06:35:00;5.50;;;1.45;;
19026;SDS011;9646;52.034;5.554;2022-09-09T06:37:28;4.65;;;1.35;;
19026;SDS011;9646;52.034;5.554;2022-09-09T06:39:56;3.78;;;1.38;;
19026;SDS011;9646;52.034;5.554;2022-09-09T06:42:23;6.30;;;1.50;;
19026;SDS011;9646;52.034;5.554;2022-09-09T06:44:50;5.63;;;1.20;;
19026;SDS011;9646;52.034;5.554;2022-09-09T06:47:17;5.28;;;1.55;;
19026;SDS011;9646;52.034;5.554;2022-09-09T06:49:44;5.18;;;1.50;;
19026;SDS011;9646;52.034;5.554;2022-09-09T06:52:11;6.15;;;1.45;;
19026;SDS011;9646;52.034;5.554;2022-09-09T06:54:39;10.02;;;1.80;;
19026;SDS011;9646;52.034;5.554;2022-09-09T06:57:06;6.03;;;1.80;;
19026;SDS011;9646;52.034;5.554;2022-09-09T06:59:33;6.50;;;1.60;;
19026;SDS011;9646;52.034;5.554;2022-09-09T07:02:00;5.65;;;1.50;;
19026;SDS011;9646;52.034;5.554;2022-09-09T07:04:28;5.53;;;1.40;;
19026;SDS011;9646;52.034;5.554;2022-09-09T07:06:55;7.70;;;1.48;;
19026;SDS011;9646;52.034;5.554;2022-09-09T07:09:22;5.47;;;2.03;;
19026;SDS011;9646;52.034;5.554;2022-09-09T07:11:51;5.32;;;1.52;;
19026;SDS011;9646;52.034;5.554;2022-09-09T07:14:18;5.78;;;1.90;;
19026;SDS011;9646;52.034;5.554;2022-09-09T07:16:46;6.78;;;2.03;;
19026;SDS011;9646;52.034;5.554;2022-09-09T07:19:14;4.97;;;1.65;;
19026;SDS011;9646;52.034;5.554;2022-09-09T07:21:41;7.18;;;1.67;;
19026;SDS011;9646;52.034;5.554;2022-09-09T07:24:08;9.57;;;2.13;;
19026;SDS011;9646;52.034;5.554;2022-09-09T07:26:36;6.10;;;1.60;;
19026;SDS011;9646;52.034;5.554;2022-09-09T07:29:04;4.43;;;1.92;;
19026;SDS011;9646;52.034;5.554;2022-09-09T07:31:32;5.30;;;1.65;;
19026;SDS011;9646;52.034;5.554;2022-09-09T07:34:00;5.50;;;1.85;;
19026;SDS011;9646;52.034;5.554;2022-09-09T07:36:37;5.60;;;1.58;;
19026;SDS011;9646;52.034;5.554;2022-09-09T07:39:30;7.57;;;1.83;;
19026;SDS011;9646;52.034;5.554;2022-09-09T07:41:57;6.88;;;1.95;;
19026;SDS011;9646;52.034;5.554;2022-09-09T07:44:26;7.72;;;2.00;;
19026;SDS011;9646;52.034;5.554;2022-09-09T07:46:53;7.95;;;2.00;;
19026;SDS011;9646;52.034;5.554;2022-09-09T07:49:20;8.15;;;2.00;;
19026;SDS011;9646;52.034;5.554;2022-09-09T07:51:47;6.88;;;1.73;;
19026;SDS011;9646;52.034;5.554;2022-09-09T07:54:15;5.88;;;2.00;;
19026;SDS011;9646;52.034;5.554;2022-09-09T07:56:45;10.20;;;2.40;;
19026;SDS011;9646;52.034;5.554;2022-09-09T07:59:12;5.10;;;1.70;;
19026;SDS011;9646;52.034;5.554;2022-09-09T08:01:41;6.82;;;1.95;;
19026;SDS011;9646;52.034;5.554;2022-09-09T08:04:09;6.72;;;1.60;;
19026;SDS011;9646;52.034;5.554;2022-09-09T08:06:40;7.47;;;2.00;;
19026;SDS011;9646;52.034;5.554;2022-09-09T08:09:08;8.40;;;1.70;;
19026;SDS011;9646;52.034;5.554;2022-09-09T08:11:35;4.45;;;1.30;;
19026;SDS011;9646;52.034;5.554;2022-09-09T08:14:03;5.97;;;1.85;;
19026;SDS011;9646;52.034;5.554;2022-09-09T08:16:31;8.45;;;1.35;;
19026;SDS011;9646;52.034;5.554;2022-09-09T08:19:03;5.60;;;1.65;;
19026;SDS011;9646;52.034;5.554;2022-09-09T08:21:31;8.45;;;1.77;;
19026;SDS011;9646;52.034;5.554;2022-09-09T08:23:58;6.30;;;1.63;;
19026;SDS011;9646;52.034;5.554;2022-09-09T08:26:26;5.57;;;1.50;;
19026;SDS011;9646;52.034;5.554;2022-09-09T08:28:54;7.35;;;1.85;;
19026;SDS011;9646;52.034;5.554;2022-09-09T08:31:23;6.75;;;1.63;;
19026;SDS011;9646;52.034;5.554;2022-09-09T08:33:50;5.43;;;1.40;;
19026;SDS011;9646;52.034;5.554;2022-09-09T08:36:19;4.43;;;1.52;;
19026;SDS011;9646;52.034;5.554;2022-09-09T08:38:47;5.03;;;1.73;;
19026;SDS011;9646;52.034;5.554;2022-09-09T08:41:20;6.78;;;1.88;;
19026;SDS011;9646;52.034;5.554;2022-09-09T08:43:50;4.63;;;1.30;;
19026;SDS011;9646;52.034;5.554;2022-09-09T08:46:26;5.10;;;1.73;;
19026;SDS011;9646;52.034;5.554;2022-09-09T08:48:58;8.90;;;1.60;;
19026;SDS011;9646;52.034;5.554;2022-09-09T08:51:29;3.42;;;1.10;;
19026;SDS011;9646;52.034;5.554;2022-09-09T08:53:58;5.70;;;1.55;;
19026;SDS011;9646;52.034;5.554;2022-09-09T08:56:26;5.28;;;1.65;;
19026;SDS011;9646;52.034;5.554;2022-09-09T08:58:54;7.43;;;1.60;;
19026;SDS011;9646;52.034;5.554;2022-09-09T09:01:27;8.48;;;1.92;;
19026;SDS011;9646;52.034;5.554;2022-09-09T09:04:00;6.90;;;1.85;;
19026;SDS011;9646;52.034;5.554;2022-09-09T09:06:37;6.72;;;1.48;;
19026;SDS011;9646;52.034;5.554;2022-09-09T09:09:07;7.35;;;1.83;;
19026;SDS011;9646;52.034;5.554;2022-09-09T09:11:36;5.85;;;1.33;;
19026;SDS011;9646;52.034;5.554;2022-09-09T09:14:07;8.77;;;2.20;;
19026;SDS011;9646;52.034;5.554;2022-09-09T09:16:38;7.18;;;1.90;;
19026;SDS011;9646;52.034;5.554;2022-09-09T09:19:06;6.25;;;1.98;;
19026;SDS011;9646;52.034;5.554;2022-09-09T09:21:38;6.90;;;1.70;;
19026;SDS011;9646;52.034;5.554;2022-09-09T09:24:11;5.50;;;1.58;;
19026;SDS011;9646;52.034;5.554;2022-09-09T09:26:41;6.80;;;2.05;;
19026;SDS011;9646;52.034;5.554;2022-09-09T09:29:11;8.32;;;1.90;;
19026;SDS011;9646;52.034;5.554;2022-09-09T09:31:41;7.03;;;1.92;;
19026;SDS011;9646;52.034;5.554;2022-09-09T09:34:08;7.63;;;1.60;;
19026;SDS011;9646;52.034;5.554;2022-09-09T09:36:40;7.25;;;1.88;;
19026;SDS011;9646;52.034;5.554;2022-09-09T09:39:09;5.72;;;1.88;;
19026;SDS011;9646;52.034;5.554;2022-09-09T09:41:38;8.38;;;2.90;;
19026;SDS011;9646;52.034;5.554;2022-09-09T09:44:05;5.18;;;1.60;;
19026;SDS011;9646;52.034;5.554;2022-09-09T09:46:33;6.13;;;1.70;;
19026;SDS011;9646;52.034;5.554;2022-09-09T09:49:02;6.47;;;1.65;;
19026;SDS011;9646;52.034;5.554;2022-09-09T09:51:30;7.82;;;2.20;;
19026;SDS011;9646;52.034;5.554;2022-09-09T09:54:08;9.85;;;1.80;;
19026;SDS011;9646;52.034;5.554;2022-09-09T09:56:36;5.55;;;1.63;;
19026;SDS011;9646;52.034;5.554;2022-09-09T09:59:04;6.38;;;1.92;;
19026;SDS011;9646;52.034;5.554;2022-09-09T10:01:32;6.95;;;2.03;;
19026;SDS011;9646;52.034;5.554;2022-09-09T10:04:00;7.30;;;2.00;;
19026;SDS011;9646;52.034;5.554;2022-09-09T10:06:31;9.30;;;2.50;;
19026;SDS011;9646;52.034;5.554;2022-09-09T10:08:58;7.30;;;1.75;;
19026;SDS011;9646;52.034;5.554;2022-09-09T10:11:40;8.85;;;2.45;;
19026;SDS011;9646;52.034;5.554;2022-09-09T10:14:11;7.45;;;2.60;;
19026;SDS011;9646;52.034;5.554;2022-09-09T10:16:46;5.35;;;1.75;;
19026;SDS011;9646;52.034;5.554;2022-09-09T10:19:20;7.30;;;2.20;;
19026;SDS011;9646;52.034;5.554;2022-09-09T10:21:57;8.32;;;2.53;;
19026;SDS011;9646;52.034;5.554;2022-09-09T10:24:32;8.23;;;2.10;;
19026;SDS011;9646;52.034;5.554;2022-09-09T10:27:03;6.93;;;1.77;;
19026;SDS011;9646;52.034;5.554;2022-09-09T10:29:36;10.90;;;2.78;;
19026;SDS011;9646;52.034;5.554;2022-09-09T10:32:13;6.35;;;1.55;;
19026;SDS011;9646;52.034;5.554;2022-09-09T10:34:52;7.35;;;2.15;;
19026;SDS011;9646;52.034;5.554;2022-09-09T10:37:26;6.15;;;1.95;;
19026;SDS011;9646;52.034;5.554;2022-09-09T10:40:00;6.97;;;1.80;;
19026;SDS011;9646;52.034;5.554;2022-09-09T10:42:30;6.97;;;2.00;;
19026;SDS011;9646;52.034;5.554;2022-09-09T10:45:02;4.88;;;1.95;;
19026;SDS011;9646;52.034;5.554;2022-09-09T10:47:45;6.57;;;2.20;;
19026;SDS011;9646;52.034;5.554;2022-09-09T10:50:20;5.20;;;1.90;;
19026;SDS011;9646;52.034;5.554;2022-09-09T10:52:54;7.03;;;2.25;;
19026;SDS011;9646;52.034;5.554;2022-09-09T10:55:26;4.13;;;1.50;;
19026;SDS011;9646;52.034;5.554;2022-09-09T10:57:57;5.00;;;1.95;;
19026;SDS011;9646;52.034;5.554;2022-09-09T11:00:25;9.95;;;2.13;;
19026;SDS011;9646;52.034;5.554;2022-09-09T11:02:55;8.18;;;2.22;;
19026;SDS011;9646;52.034;5.554;2022-09-09T11:05:24;5.30;;;1.80;;
19026;SDS011;9646;52.034;5.554;2022-09-09T11:07:56;5.40;;;2.17;;
19026;SDS011;9646;52.034;5.554;2022-09-09T11:10:26;6.90;;;2.63;;
19026;SDS011;9646;52.034;5.554;2022-09-09T11:12:59;7.25;;;2.25;;
19026;SDS011;9646;52.034;5.554;2022-09-09T11:15:28;7.18;;;1.95;;
19026;SDS011;9646;52.034;5.554;2022-09-09T11:17:58;4.90;;;1.77;;
19026;SDS011;9646;52.034;5.554;2022-09-09T11:20:26;7.95;;;1.80;;
19026;SDS011;9646;52.034;5.554;2022-09-09T11:22:54;7.13;;;2.33;;
19026;SDS011;9646;52.034;5.554;2022-09-09T11:25:26;5.57;;;2.13;;
19026;SDS011;9646;52.034;5.554;2022-09-09T11:28:02;7.90;;;2.38;;
19026;SDS011;9646;52.034;5.554;2022-09-09T11:30:33;5.30;;;1.70;;
19026;SDS011;9646;52.034;5.554;2022-09-09T11:33:07;9.27;;;2.28;;
19026;SDS011;9646;52.034;5.554;2022-09-09T11:35:41;5.32;;;1.55;;
19026;SDS011;9646;52.034;5.554;2022-09-09T11:38:15;10.40;;;1.77;;
19026;SDS011;9646;52.034;5.554;2022-09-09T11:40:43;3.33;;;1.42;;
19026;SDS011;9646;52.034;5.554;2022-09-09T11:43:13;5.53;;;1.85;;
19026;SDS011;9646;52.034;5.554;2022-09-09T11:45:42;3.90;;;1.60;;
19026;SDS011;9646;52.034;5.554;2022-09-09T11:48:22;8.32;;;2.13;;
19026;SDS011;9646;52.034;5.554;2022-09-09T11:50:57;4.88;;;1.80;;
19026;SDS011;9646;52.034;5.554;2022-09-09T11:53:24;4.65;;;1.77;;
19026;SDS011;9646;52.034;5.554;2022-09-09T11:56:02;6.30;;;1.92;;
19026;SDS011;9646;52.034;5.554;2022-09-09T11:58:33;5.90;;;1.85;;
19026;SDS011;9646;52.034;5.554;2022-09-09T12:01:01;3.72;;;1.55;;
19026;SDS011;9646;52.034;5.554;2022-09-09T12:03:40;8.77;;;1.85;;
19026;SDS011;9646;52.034;5.554;2022-09-09T12:06:09;6.63;;;1.80;;
19026;SDS011;9646;52.034;5.554;2022-09-09T12:08:39;6.57;;;1.67;;
19026;SDS011;9646;52.034;5.554;2022-09-09T12:11:08;6.55;;;1.70;;
19026;SDS011;9646;52.034;5.554;2022-09-09T12:13:37;5.30;;;1.65;;
19026;SDS011;9646;52.034;5.554;2022-09-09T12:16:04;6.93;;;1.67;;
19026;SDS011;9646;52.034;5.554;2022-09-09T12:18:32;5.38;;;1.63;;
19026;SDS011;9646;52.034;5.554;2022-09-09T12:21:02;5.72;;;1.75;;
19026;SDS011;9646;52.034;5.554;2022-09-09T12:23:32;5.80;;;1.88;;
19026;SDS011;9646;52.034;5.554;2022-09-09T12:26:03;4.85;;;1.30;;
19026;SDS011;9646;52.034;5.554;2022-09-09T12:28:39;5.75;;;1.50;;
19026;SDS011;9646;52.034;5.554;2022-09-09T12:31:08;5.13;;;1.45;;
19026;SDS011;9646;52.034;5.554;2022-09-09T12:33:42;6.10;;;1.48;;
19026;SDS011;9646;52.034;5.554;2022-09-09T12:36:12;6.10;;;1.67;;
19026;SDS011;9646;52.034;5.554;2022-09-09T12:38:40;4.35;;;1.33;;
19026;SDS011;9646;52.034;5.554;2022-09-09T12:41:15;4.82;;;1.92;;
19026;SDS011;9646;52.034;5.554;2022-09-09T12:43:46;3.70;;;1.50;;
19026;SDS011;9646;52.034;5.554;2022-09-09T12:46:17;4.18;;;1.42;;
19026;SDS011;9646;52.034;5.554;2022-09-09T12:48:47;5.43;;;1.60;;
19026;SDS011;9646;52.034;5.554;2022-09-09T12:51:18;5.22;;;1.85;;
19026;SDS011;9646;52.034;5.554;2022-09-09T12:53:45;4.70;;;1.63;;
19026;SDS011;9646;52.034;5.554;2022-09-09T12:56:18;5.05;;;1.60;;
19026;SDS011;9646;52.034;5.554;2022-09-09T12:58:47;3.88;;;1.40;;
19026;SDS011;9646;52.034;5.554;2022-09-09T13:01:18;4.68;;;1.50;;
19026;SDS011;9646;52.034;5.554;2022-09-09T13:03:47;2.97;;;1.30;;
19026;SDS011;9646;52.034;5.554;2022-09-09T13:06:18;5.32;;;1.40;;
19026;SDS011;9646;52.034;5.554;2022-09-09T13:08:47;4.25;;;1.27;;
19026;SDS011;9646;52.034;5.554;2022-09-09T13:11:15;7.05;;;1.63;;
19026;SDS011;9646;52.034;5.554;2022-09-09T13:13:43;5.07;;;1.23;;
19026;SDS011;9646;52.034;5.554;2022-09-09T13:16:19;7.15;;;1.40;;
19026;SDS011;9646;52.034;5.554;2022-09-09T13:18:47;5.57;;;1.55;;
19026;SDS011;9646;52.034;5.554;2022-09-09T13:21:15;5.10;;;1.30;;
19026;SDS011;9646;52.034;5.554;2022-09-09T13:23:42;4.40;;;1.70;;
19026;SDS011;9646;52.034;5.554;2022-09-09T13:26:22;6.07;;;1.83;;
19026;SDS011;9646;52.034;5.554;2022-09-09T13:28:49;3.63;;;1.35;;
19026;SDS011;9646;52.034;5.554;2022-09-09T13:31:22;4.35;;;1.50;;
19026;SDS011;9646;52.034;5.554;2022-09-09T13:33:52;4.80;;;1.52;;
19026;SDS011;9646;52.034;5.554;2022-09-09T13:36:27;5.80;;;1.58;;
19026;SDS011;9646;52.034;5.554;2022-09-09T13:38:55;5.32;;;1.23;;
19026;SDS011;9646;52.034;5.554;2022-09-09T13:41:24;3.95;;;1.40;;
19026;SDS011;9646;52.034;5.554;2022-09-09T13:43:52;3.63;;;1.60;;
19026;SDS011;9646;52.034;5.554;2022-09-09T13:46:26;3.10;;;1.40;;
19026;SDS011;9646;52.034;5.554;2022-09-09T13:48:55;3.85;;;1.40;;
19026;SDS011;9646;52.034;5.554;2022-09-09T13:51:26;4.78;;;1.30;;
19026;SDS011;9646;52.034;5.554;2022-09-09T13:53:55;5.00;;;1.45;;
19026;SDS011;9646;52.034;5.554;2022-09-09T13:56:22;4.18;;;1.48;;
19026;SDS011;9646;52.034;5.554;2022-09-09T13:58:49;5.90;;;1.42;;
19026;SDS011;9646;52.034;5.554;2022-09-09T14:01:16;5.43;;;1.45;;
19026;SDS011;9646;52.034;5.554;2022-09-09T14:03:45;4.72;;;1.33;;
19026;SDS011;9646;52.034;5.554;2022-09-09T14:06:12;3.55;;;1.20;;
19026;SDS011;9646;52.034;5.554;2022-09-09T14:08:39;5.38;;;1.40;;
19026;SDS011;9646;52.034;5.554;2022-09-09T14:11:07;7.00;;;1.58;;
19026;SDS011;9646;52.034;5.554;2022-09-09T14:13:37;1.90;;;1.00;;
19026;SDS011;9646;52.034;5.554;2022-09-09T14:16:04;3.33;;;1.00;;
19026;SDS011;9646;52.034;5.554;2022-09-09T14:18:32;4.63;;;1.50;;
19026;SDS011;9646;52.034;5.554;2022-09-09T14:21:00;4.70;;;1.08;;
19026;SDS011;9646;52.034;5.554;2022-09-09T14:23:27;3.80;;;1.30;;
19026;SDS011;9646;52.034;5.554;2022-09-09T14:25:55;4.85;;;1.67;;
19026;SDS011;9646;52.034;5.554;2022-09-09T14:28:22;4.07;;;1.25;;
19026;SDS011;9646;52.034;5.554;2022-09-09T14:30:51;2.50;;;1.08;;
19026;SDS011;9646;52.034;5.554;2022-09-09T14:33:18;4.13;;;1.23;;
19026;SDS011;9646;52.034;5.554;2022-09-09T14:35:46;3.78;;;1.20;;
19026;SDS011;9646;52.034;5.554;2022-09-09T14:38:15;2.63;;;1.35;;
19026;SDS011;9646;52.034;5.554;2022-09-09T14:40:44;3.72;;;1.20;;
19026;SDS011;9646;52.034;5.554;2022-09-09T14:43:12;2.90;;;1.10;;
19026;SDS011;9646;52.034;5.554;2022-09-09T14:45:39;6.38;;;1.50;;
19026;SDS011;9646;52.034;5.554;2022-09-09T14:48:08;4.53;;;1.48;;
19026;SDS011;9646;52.034;5.554;2022-09-09T14:50:35;5.50;;;1.45;;
19026;SDS011;9646;52.034;5.554;2022-09-09T14:53:05;5.35;;;1.65;;
19026;SDS011;9646;52.034;5.554;2022-09-09T14:55:33;2.92;;;1.38;;
19026;SDS011;9646;52.034;5.554;2022-09-09T14:58:00;4.20;;;1.38;;
19026;SDS011;9646;52.034;5.554;2022-09-09T15:00:27;3.38;;;1.45;;
19026;SDS011;9646;52.034;5.554;2022-09-09T15:02:54;4.72;;;1.33;;
19026;SDS011;9646;52.034;5.554;2022-09-09T15:05:22;4.63;;;1.70;;
19026;SDS011;9646;52.034;5.554;2022-09-09T15:07:49;8.55;;;1.80;;
19026;SDS011;9646;52.034;5.554;2022-09-09T15:10:16;5.78;;;1.40;;
19026;SDS011;9646;52.034;5.554;2022-09-09T15:12:45;4.40;;;1.25;;